sensor_id;sensor_type;location;lat;lon;timestamp;temperature;humidity
12771;DHT22;6449;47.666;9.160;2023-07-24T00:01:08;19.70;99.90
12771;DHT22;6449;47.666;9.160;2023-07-24T00:06:01;19.50;99.90
12771;DHT22;6449;47.666;9.160;2023-07-24T00:10:55;19.30;99.90
12771;DHT22;6449;47.666;9.160;2023-07-24T00:15:48;19.40;99.90
12771;DHT22;6449;47.666;9.160;2023-07-24T00:20:43;19.40;99.90
12771;DHT22;6449;47.666;9.160;2023-07-24T00:25:37;19.30;99.90
12771;DHT22;6449;47.666;9.160;2023-07-24T00:30:30;19.40;99.90
12771;DHT22;6449;47.666;9.160;2023-07-24T00:35:24;19.20;99.90
12771;DHT22;6449;47.666;9.160;2023-07-24T00:40:19;19.30;99.90
12771;DHT22;6449;47.666;9.160;2023-07-24T00:45:13;19.20;99.90
12771;DHT22;6449;47.666;9.160;2023-07-24T00:50:07;19.10;99.90
12771;DHT22;6449;47.666;9.160;2023-07-24T00:55:02;19.10;99.90
12771;DHT22;6449;47.666;9.160;2023-07-24T00:59:57;19.20;99.90
12771;DHT22;6449;47.666;9.160;2023-07-24T01:04:50;19.40;99.90
12771;DHT22;6449;47.666;9.160;2023-07-24T01:09:44;19.50;99.90
12771;DHT22;6449;47.666;9.160;2023-07-24T01:14:44;19.20;99.90
12771;DHT22;6449;47.666;9.160;2023-07-24T01:19:43;19.40;99.90
12771;DHT22;6449;47.666;9.160;2023-07-24T01:24:52;19.50;99.90
12771;DHT22;6449;47.666;9.160;2023-07-24T01:29:54;19.60;99.90
12771;DHT22;6449;47.666;9.160;2023-07-24T01:34:48;19.40;99.90
12771;DHT22;6449;47.666;9.160;2023-07-24T01:39:43;19.50;99.90
12771;DHT22;6449;47.666;9.160;2023-07-24T01:44:38;19.60;99.90
12771;DHT22;6449;47.666;9.160;2023-07-24T01:49:32;19.60;99.90
12771;DHT22;6449;47.666;9.160;2023-07-24T01:54:26;19.10;99.90
12771;DHT22;6449;47.666;9.160;2023-07-24T01:59:19;19.00;99.90
12771;DHT22;6449;47.666;9.160;2023-07-24T02:04:12;19.10;99.90
12771;DHT22;6449;47.666;9.160;2023-07-24T02:09:07;19.20;99.90
12771;DHT22;6449;47.666;9.160;2023-07-24T02:14:00;19.10;99.90
12771;DHT22;6449;47.666;9.160;2023-07-24T02:18:53;19.10;99.90
12771;DHT22;6449;47.666;9.160;2023-07-24T02:23:47;19.10;99.90
12771;DHT22;6449;47.666;9.160;2023-07-24T02:28:41;19.00;99.90
12771;DHT22;6449;47.666;9.160;2023-07-24T02:33:35;19.10;99.90
12771;DHT22;6449;47.666;9.160;2023-07-24T02:38:28;19.10;99.90
12771;DHT22;6449;47.666;9.160;2023-07-24T02:43:21;18.70;99.90
12771;DHT22;6449;47.666;9.160;2023-07-24T02:48:16;18.60;99.90
12771;DHT22;6449;47.666;9.160;2023-07-24T02:53:09;18.70;99.90
12771;DHT22;6449;47.666;9.160;2023-07-24T02:58:03;18.60;99.90
12771;DHT22;6449;47.666;9.160;2023-07-24T03:02:56;18.70;99.90
12771;DHT22;6449;47.666;9.160;2023-07-24T03:07:51;18.70;99.90
12771;DHT22;6449;47.666;9.160;2023-07-24T03:12:44;18.40;99.90
12771;DHT22;6449;47.666;9.160;2023-07-24T03:17:38;18.40;99.90
12771;DHT22;6449;47.666;9.160;2023-07-24T03:22:31;18.20;99.90
12771;DHT22;6449;47.666;9.160;2023-07-24T03:27:26;18.20;99.90
12771;DHT22;6449;47.666;9.160;2023-07-24T03:32:19;18.40;99.90
12771;DHT22;6449;47.666;9.160;2023-07-24T03:37:12;18.40;99.90
12771;DHT22;6449;47.666;9.160;2023-07-24T03:42:06;18.40;99.90
12771;DHT22;6449;47.666;9.160;2023-07-24T03:47:00;18.10;99.90
12771;DHT22;6449;47.666;9.160;2023-07-24T03:51:54;18.10;99.90
12771;DHT22;6449;47.666;9.160;2023-07-24T03:56:47;18.00;99.90
12771;DHT22;6449;47.666;9.160;2023-07-24T04:01:41;18.20;99.90
12771;DHT22;6449;47.666;9.160;2023-07-24T04:06:35;18.20;99.90
12771;DHT22;6449;47.666;9.160;2023-07-24T04:11:29;18.30;99.90
12771;DHT22;6449;47.666;9.160;2023-07-24T04:16:22;18.10;99.90
12771;DHT22;6449;47.666;9.160;2023-07-24T04:21:19;18.10;99.90
12771;DHT22;6449;47.666;9.160;2023-07-24T04:26:14;18.30;99.90
12771;DHT22;6449;47.666;9.160;2023-07-24T04:31:07;18.40;99.90
12771;DHT22;6449;47.666;9.160;2023-07-24T04:36:01;18.60;99.90
12771;DHT22;6449;47.666;9.160;2023-07-24T04:40:54;18.60;99.90
12771;DHT22;6449;47.666;9.160;2023-07-24T04:45:49;18.50;99.90
12771;DHT22;6449;47.666;9.160;2023-07-24T04:50:42;18.20;99.90
12771;DHT22;6449;47.666;9.160;2023-07-24T04:55:36;18.30;99.90
12771;DHT22;6449;47.666;9.160;2023-07-24T05:00:29;18.40;99.90
12771;DHT22;6449;47.666;9.160;2023-07-24T05:05:24;18.50;99.90
12771;DHT22;6449;47.666;9.160;2023-07-24T05:10:17;18.40;99.90
12771;DHT22;6449;47.666;9.160;2023-07-24T05:15:11;18.50;99.90
12771;DHT22;6449;47.666;9.160;2023-07-24T05:20:06;18.40;99.90
12771;DHT22;6449;47.666;9.160;2023-07-24T05:25:01;18.40;99.90
12771;DHT22;6449;47.666;9.160;2023-07-24T05:29:55;18.40;99.90
12771;DHT22;6449;47.666;9.160;2023-07-24T05:34:51;18.30;99.90
12771;DHT22;6449;47.666;9.160;2023-07-24T05:39:44;18.00;99.90
12771;DHT22;6449;47.666;9.160;2023-07-24T05:44:39;17.90;99.90
12771;DHT22;6449;47.666;9.160;2023-07-24T05:49:33;17.90;99.90
12771;DHT22;6449;47.666;9.160;2023-07-24T05:54:26;17.90;99.90
12771;DHT22;6449;47.666;9.160;2023-07-24T05:59:19;17.80;99.90
12771;DHT22;6449;47.666;9.160;2023-07-24T06:04:14;17.80;99.90
12771;DHT22;6449;47.666;9.160;2023-07-24T06:09:08;17.80;99.90
12771;DHT22;6449;47.666;9.160;2023-07-24T06:14:01;17.60;99.90
12771;DHT22;6449;47.666;9.160;2023-07-24T06:18:54;17.70;99.90
12771;DHT22;6449;47.666;9.160;2023-07-24T06:23:49;17.60;99.90
12771;DHT22;6449;47.666;9.160;2023-07-24T06:28:43;17.70;99.90
12771;DHT22;6449;47.666;9.160;2023-07-24T06:33:36;17.90;99.90
12771;DHT22;6449;47.666;9.160;2023-07-24T06:38:30;18.10;99.90
12771;DHT22;6449;47.666;9.160;2023-07-24T06:43:24;18.30;99.90
12771;DHT22;6449;47.666;9.160;2023-07-24T06:48:18;18.40;99.90
12771;DHT22;6449;47.666;9.160;2023-07-24T06:53:11;18.50;99.90
12771;DHT22;6449;47.666;9.160;2023-07-24T06:58:04;18.70;99.90
12771;DHT22;6449;47.666;9.160;2023-07-24T07:02:59;18.80;99.90
12771;DHT22;6449;47.666;9.160;2023-07-24T07:07:53;18.80;99.90
12771;DHT22;6449;47.666;9.160;2023-07-24T07:12:46;18.80;99.90
12771;DHT22;6449;47.666;9.160;2023-07-24T07:17:39;18.70;99.90
12771;DHT22;6449;47.666;9.160;2023-07-24T07:22:34;18.60;99.90
12771;DHT22;6449;47.666;9.160;2023-07-24T07:27:28;18.50;99.90
12771;DHT22;6449;47.666;9.160;2023-07-24T07:32:21;18.40;99.90
12771;DHT22;6449;47.666;9.160;2023-07-24T07:37:14;18.40;99.90
12771;DHT22;6449;47.666;9.160;2023-07-24T07:42:09;18.50;99.90
12771;DHT22;6449;47.666;9.160;2023-07-24T07:47:09;18.50;99.90
12771;DHT22;6449;47.666;9.160;2023-07-24T07:52:03;18.70;99.90
12771;DHT22;6449;47.666;9.160;2023-07-24T07:56:57;18.90;99.90
12771;DHT22;6449;47.666;9.160;2023-07-24T08:01:52;19.00;99.90
12771;DHT22;6449;47.666;9.160;2023-07-24T08:06:45;19.10;99.90
12771;DHT22;6449;47.666;9.160;2023-07-24T08:11:39;19.10;99.90
12771;DHT22;6449;47.666;9.160;2023-07-24T08:16:33;19.10;99.90
12771;DHT22;6449;47.666;9.160;2023-07-24T08:21:28;19.20;99.90
12771;DHT22;6449;47.666;9.160;2023-07-24T08:26:21;19.30;99.90
12771;DHT22;6449;47.666;9.160;2023-07-24T08:31:16;19.40;99.90
12771;DHT22;6449;47.666;9.160;2023-07-24T08:36:09;19.40;99.90
12771;DHT22;6449;47.666;9.160;2023-07-24T08:41:07;19.50;99.90
12771;DHT22;6449;47.666;9.160;2023-07-24T08:46:02;19.80;99.90
12771;DHT22;6449;47.666;9.160;2023-07-24T08:50:57;20.00;99.90
12771;DHT22;6449;47.666;9.160;2023-07-24T08:55:52;20.20;99.90
12771;DHT22;6449;47.666;9.160;2023-07-24T09:00:48;20.20;99.90
12771;DHT22;6449;47.666;9.160;2023-07-24T09:05:43;20.40;99.90
12771;DHT22;6449;47.666;9.160;2023-07-24T09:10:36;20.50;99.90
12771;DHT22;6449;47.666;9.160;2023-07-24T09:15:39;20.90;99.90
12771;DHT22;6449;47.666;9.160;2023-07-24T09:20:42;21.30;99.90
12771;DHT22;6449;47.666;9.160;2023-07-24T09:25:37;21.70;99.90
12771;DHT22;6449;47.666;9.160;2023-07-24T09:30:32;22.00;99.90
12771;DHT22;6449;47.666;9.160;2023-07-24T09:35:25;21.80;99.90
12771;DHT22;6449;47.666;9.160;2023-07-24T09:40:22;22.00;99.90
12771;DHT22;6449;47.666;9.160;2023-07-24T09:45:16;21.70;99.90
12771;DHT22;6449;47.666;9.160;2023-07-24T09:50:15;21.30;99.90
12771;DHT22;6449;47.666;9.160;2023-07-24T09:55:11;21.00;99.90
12771;DHT22;6449;47.666;9.160;2023-07-24T10:00:12;21.00;99.90
12771;DHT22;6449;47.666;9.160;2023-07-24T10:05:06;21.40;99.90
12771;DHT22;6449;47.666;9.160;2023-07-24T10:10:01;21.50;99.90
12771;DHT22;6449;47.666;9.160;2023-07-24T10:14:55;21.40;99.90
12771;DHT22;6449;47.666;9.160;2023-07-24T10:19:50;21.30;99.90
12771;DHT22;6449;47.666;9.160;2023-07-24T10:24:44;21.20;99.90
12771;DHT22;6449;47.666;9.160;2023-07-24T10:29:37;21.00;99.90
12771;DHT22;6449;47.666;9.160;2023-07-24T10:34:37;20.80;99.90
12771;DHT22;6449;47.666;9.160;2023-07-24T10:39:39;20.60;99.90
12771;DHT22;6449;47.666;9.160;2023-07-24T10:44:33;20.60;99.90
12771;DHT22;6449;47.666;9.160;2023-07-24T10:49:26;20.60;99.90
12771;DHT22;6449;47.666;9.160;2023-07-24T10:54:21;20.80;99.90
12771;DHT22;6449;47.666;9.160;2023-07-24T10:59:16;20.70;99.90
12771;DHT22;6449;47.666;9.160;2023-07-24T11:04:09;20.60;99.90
12771;DHT22;6449;47.666;9.160;2023-07-24T11:09:04;20.40;99.90
12771;DHT22;6449;47.666;9.160;2023-07-24T11:13:57;20.30;99.90
12771;DHT22;6449;47.666;9.160;2023-07-24T11:18:53;20.20;99.90
12771;DHT22;6449;47.666;9.160;2023-07-24T11:23:48;20.10;99.90
12771;DHT22;6449;47.666;9.160;2023-07-24T11:28:42;20.00;99.90
12771;DHT22;6449;47.666;9.160;2023-07-24T11:33:36;19.70;99.90
12771;DHT22;6449;47.666;9.160;2023-07-24T11:38:31;19.40;99.90
12771;DHT22;6449;47.666;9.160;2023-07-24T11:43:25;19.20;99.90
12771;DHT22;6449;47.666;9.160;2023-07-24T11:48:19;18.80;99.90
12771;DHT22;6449;47.666;9.160;2023-07-24T11:53:21;18.70;99.90
12771;DHT22;6449;47.666;9.160;2023-07-24T11:58:17;18.80;99.90
12771;DHT22;6449;47.666;9.160;2023-07-24T12:03:11;19.00;99.90
12771;DHT22;6449;47.666;9.160;2023-07-24T12:08:05;19.40;99.90
12771;DHT22;6449;47.666;9.160;2023-07-24T12:13:00;19.80;99.90
12771;DHT22;6449;47.666;9.160;2023-07-24T12:17:55;20.00;99.90
12771;DHT22;6449;47.666;9.160;2023-07-24T12:22:49;20.50;99.90
12771;DHT22;6449;47.666;9.160;2023-07-24T12:27:43;20.90;99.90
12771;DHT22;6449;47.666;9.160;2023-07-24T12:32:36;20.90;99.90
12771;DHT22;6449;47.666;9.160;2023-07-24T12:37:31;20.80;99.90
12771;DHT22;6449;47.666;9.160;2023-07-24T12:42:24;20.80;99.90
12771;DHT22;6449;47.666;9.160;2023-07-24T12:47:18;20.90;99.90
12771;DHT22;6449;47.666;9.160;2023-07-24T12:52:12;20.90;99.90
12771;DHT22;6449;47.666;9.160;2023-07-24T12:57:06;21.10;99.90
12771;DHT22;6449;47.666;9.160;2023-07-24T13:02:00;21.10;99.90
12771;DHT22;6449;47.666;9.160;2023-07-24T13:06:53;21.20;99.90
12771;DHT22;6449;47.666;9.160;2023-07-24T13:11:47;21.40;99.90
12771;DHT22;6449;47.666;9.160;2023-07-24T13:16:44;21.60;99.90
12771;DHT22;6449;47.666;9.160;2023-07-24T13:21:37;21.60;99.90
12771;DHT22;6449;47.666;9.160;2023-07-24T13:26:31;21.60;99.90
12771;DHT22;6449;47.666;9.160;2023-07-24T13:31:25;21.50;99.90
12771;DHT22;6449;47.666;9.160;2023-07-24T13:36:21;21.50;99.90
12771;DHT22;6449;47.666;9.160;2023-07-24T13:41:15;21.20;99.90
12771;DHT22;6449;47.666;9.160;2023-07-24T13:46:08;21.00;99.90
12771;DHT22;6449;47.666;9.160;2023-07-24T13:51:02;20.90;99.90
12771;DHT22;6449;47.666;9.160;2023-07-24T13:55:56;20.70;99.90
12771;DHT22;6449;47.666;9.160;2023-07-24T14:00:50;20.70;99.90
12771;DHT22;6449;47.666;9.160;2023-07-24T14:05:44;20.70;99.90
12771;DHT22;6449;47.666;9.160;2023-07-24T14:10:37;20.60;99.90
12771;DHT22;6449;47.666;9.160;2023-07-24T14:15:32;20.50;99.90
12771;DHT22;6449;47.666;9.160;2023-07-24T14:20:25;20.50;99.90
12771;DHT22;6449;47.666;9.160;2023-07-24T14:25:19;20.50;99.90
12771;DHT22;6449;47.666;9.160;2023-07-24T14:30:12;20.50;99.90
12771;DHT22;6449;47.666;9.160;2023-07-24T14:35:08;20.70;99.90
12771;DHT22;6449;47.666;9.160;2023-07-24T14:40:02;21.00;99.90
12771;DHT22;6449;47.666;9.160;2023-07-24T14:44:55;21.10;99.90
12771;DHT22;6449;47.666;9.160;2023-07-24T14:49:53;21.00;99.90
12771;DHT22;6449;47.666;9.160;2023-07-24T14:54:48;20.90;99.90
12771;DHT22;6449;47.666;9.160;2023-07-24T14:59:41;20.90;99.90
12771;DHT22;6449;47.666;9.160;2023-07-24T15:04:34;20.80;99.90
12771;DHT22;6449;47.666;9.160;2023-07-24T15:09:28;20.70;99.90
12771;DHT22;6449;47.666;9.160;2023-07-24T15:14:23;20.50;99.90
12771;DHT22;6449;47.666;9.160;2023-07-24T15:19:17;20.30;99.90
12771;DHT22;6449;47.666;9.160;2023-07-24T15:24:10;20.10;99.90
12771;DHT22;6449;47.666;9.160;2023-07-24T15:29:04;19.90;99.90
12771;DHT22;6449;47.666;9.160;2023-07-24T15:33:59;19.80;99.90
12771;DHT22;6449;47.666;9.160;2023-07-24T15:38:52;19.80;99.90
12771;DHT22;6449;47.666;9.160;2023-07-24T15:43:45;19.70;99.90
12771;DHT22;6449;47.666;9.160;2023-07-24T15:48:41;19.70;99.90
12771;DHT22;6449;47.666;9.160;2023-07-24T15:53:36;19.70;99.90
12771;DHT22;6449;47.666;9.160;2023-07-24T15:58:31;20.00;99.90
12771;DHT22;6449;47.666;9.160;2023-07-24T16:03:24;20.10;99.90
12771;DHT22;6449;47.666;9.160;2023-07-24T16:08:19;20.20;99.90
12771;DHT22;6449;47.666;9.160;2023-07-24T16:13:13;20.30;99.90
12771;DHT22;6449;47.666;9.160;2023-07-24T16:18:07;20.20;99.90
12771;DHT22;6449;47.666;9.160;2023-07-24T16:23:00;20.30;99.90
12771;DHT22;6449;47.666;9.160;2023-07-24T16:27:54;20.30;99.90
12771;DHT22;6449;47.666;9.160;2023-07-24T16:32:48;20.20;99.90
12771;DHT22;6449;47.666;9.160;2023-07-24T16:37:42;20.10;99.90
12771;DHT22;6449;47.666;9.160;2023-07-24T16:42:35;20.10;99.90
12771;DHT22;6449;47.666;9.160;2023-07-24T16:47:28;20.10;99.90
12771;DHT22;6449;47.666;9.160;2023-07-24T16:52:23;20.00;99.90
12771;DHT22;6449;47.666;9.160;2023-07-24T16:57:17;20.00;99.90
12771;DHT22;6449;47.666;9.160;2023-07-24T17:02:10;20.00;99.90
12771;DHT22;6449;47.666;9.160;2023-07-24T17:07:04;20.00;99.90
12771;DHT22;6449;47.666;9.160;2023-07-24T17:11:59;19.80;99.90
12771;DHT22;6449;47.666;9.160;2023-07-24T17:16:58;19.80;99.90
12771;DHT22;6449;47.666;9.160;2023-07-24T17:21:54;19.80;99.90
12771;DHT22;6449;47.666;9.160;2023-07-24T17:26:49;19.80;99.90
12771;DHT22;6449;47.666;9.160;2023-07-24T17:31:44;19.70;99.90
12771;DHT22;6449;47.666;9.160;2023-07-24T17:36:38;19.70;99.90
12771;DHT22;6449;47.666;9.160;2023-07-24T17:41:31;19.60;99.90
12771;DHT22;6449;47.666;9.160;2023-07-24T17:46:24;19.50;99.90
12771;DHT22;6449;47.666;9.160;2023-07-24T17:51:19;19.40;99.90
12771;DHT22;6449;47.666;9.160;2023-07-24T17:56:13;19.40;99.90
12771;DHT22;6449;47.666;9.160;2023-07-24T18:01:07;19.40;99.90
12771;DHT22;6449;47.666;9.160;2023-07-24T18:06:01;19.50;99.90
12771;DHT22;6449;47.666;9.160;2023-07-24T18:10:56;19.60;99.90
12771;DHT22;6449;47.666;9.160;2023-07-24T18:15:52;19.50;99.90
12771;DHT22;6449;47.666;9.160;2023-07-24T18:20:46;19.40;99.90
12771;DHT22;6449;47.666;9.160;2023-07-24T18:25:39;19.40;99.90
12771;DHT22;6449;47.666;9.160;2023-07-24T18:30:34;19.30;99.90
12771;DHT22;6449;47.666;9.160;2023-07-24T18:35:28;19.20;99.90
12771;DHT22;6449;47.666;9.160;2023-07-24T18:40:21;19.20;99.90
12771;DHT22;6449;47.666;9.160;2023-07-24T18:45:18;19.10;99.90
12771;DHT22;6449;47.666;9.160;2023-07-24T18:50:13;19.00;99.90
12771;DHT22;6449;47.666;9.160;2023-07-24T18:55:09;18.90;99.90
12771;DHT22;6449;47.666;9.160;2023-07-24T19:00:03;18.90;99.90
12771;DHT22;6449;47.666;9.160;2023-07-24T19:05:08;18.90;99.90
12771;DHT22;6449;47.666;9.160;2023-07-24T19:10:04;18.90;99.90
12771;DHT22;6449;47.666;9.160;2023-07-24T19:15:01;18.90;99.90
12771;DHT22;6449;47.666;9.160;2023-07-24T19:19:55;19.00;99.90
12771;DHT22;6449;47.666;9.160;2023-07-24T19:24:49;19.00;99.90
12771;DHT22;6449;47.666;9.160;2023-07-24T19:29:47;18.90;99.90
12771;DHT22;6449;47.666;9.160;2023-07-24T19:34:40;18.70;99.90
12771;DHT22;6449;47.666;9.160;2023-07-24T19:39:35;18.80;99.90
12771;DHT22;6449;47.666;9.160;2023-07-24T19:44:29;18.60;99.90
12771;DHT22;6449;47.666;9.160;2023-07-24T19:49:23;18.50;99.90
12771;DHT22;6449;47.666;9.160;2023-07-24T19:54:18;18.60;99.90
12771;DHT22;6449;47.666;9.160;2023-07-24T19:59:11;18.60;99.90
12771;DHT22;6449;47.666;9.160;2023-07-24T20:04:06;18.70;99.90
12771;DHT22;6449;47.666;9.160;2023-07-24T20:09:01;18.70;99.90
12771;DHT22;6449;47.666;9.160;2023-07-24T20:14:03;18.70;99.90
12771;DHT22;6449;47.666;9.160;2023-07-24T20:18:57;18.70;99.90
12771;DHT22;6449;47.666;9.160;2023-07-24T20:23:50;18.60;99.90
12771;DHT22;6449;47.666;9.160;2023-07-24T20:28:46;18.70;99.90
12771;DHT22;6449;47.666;9.160;2023-07-24T20:33:43;18.60;99.90
12771;DHT22;6449;47.666;9.160;2023-07-24T20:38:37;18.60;99.90
12771;DHT22;6449;47.666;9.160;2023-07-24T20:43:30;18.60;99.90
12771;DHT22;6449;47.666;9.160;2023-07-24T20:48:25;18.60;99.90
12771;DHT22;6449;47.666;9.160;2023-07-24T20:53:19;18.50;99.90
12771;DHT22;6449;47.666;9.160;2023-07-24T20:58:13;18.40;99.90
12771;DHT22;6449;47.666;9.160;2023-07-24T21:03:06;18.40;99.90
12771;DHT22;6449;47.666;9.160;2023-07-24T21:08:01;18.40;99.90
12771;DHT22;6449;47.666;9.160;2023-07-24T21:12:54;18.40;99.90
12771;DHT22;6449;47.666;9.160;2023-07-24T21:17:50;18.40;99.90
12771;DHT22;6449;47.666;9.160;2023-07-24T21:22:44;18.30;99.90
12771;DHT22;6449;47.666;9.160;2023-07-24T21:27:39;18.40;99.90
12771;DHT22;6449;47.666;9.160;2023-07-24T21:32:32;18.50;99.90
12771;DHT22;6449;47.666;9.160;2023-07-24T21:37:28;18.50;99.90
12771;DHT22;6449;47.666;9.160;2023-07-24T21:42:22;18.50;99.90
12771;DHT22;6449;47.666;9.160;2023-07-24T21:47:19;18.40;99.90
12771;DHT22;6449;47.666;9.160;2023-07-24T21:52:14;18.30;99.90
12771;DHT22;6449;47.666;9.160;2023-07-24T21:57:08;18.40;99.90
12771;DHT22;6449;47.666;9.160;2023-07-24T22:02:06;18.50;99.90
12771;DHT22;6449;47.666;9.160;2023-07-24T22:07:05;18.50;99.90
12771;DHT22;6449;47.666;9.160;2023-07-24T22:12:03;18.50;99.90
12771;DHT22;6449;47.666;9.160;2023-07-24T22:17:00;18.40;99.90
12771;DHT22;6449;47.666;9.160;2023-07-24T22:21:53;18.50;99.90
12771;DHT22;6449;47.666;9.160;2023-07-24T22:26:50;18.40;99.90
12771;DHT22;6449;47.666;9.160;2023-07-24T22:31:43;18.30;99.90
12771;DHT22;6449;47.666;9.160;2023-07-24T22:36:37;18.20;99.90
12771;DHT22;6449;47.666;9.160;2023-07-24T22:41:31;18.20;99.90
12771;DHT22;6449;47.666;9.160;2023-07-24T22:46:26;18.20;99.90
12771;DHT22;6449;47.666;9.160;2023-07-24T22:51:20;18.30;99.90
12771;DHT22;6449;47.666;9.160;2023-07-24T22:56:13;18.30;99.90
12771;DHT22;6449;47.666;9.160;2023-07-24T23:01:06;18.30;99.90
12771;DHT22;6449;47.666;9.160;2023-07-24T23:06:01;18.30;99.90
12771;DHT22;6449;47.666;9.160;2023-07-24T23:10:55;18.40;99.90
12771;DHT22;6449;47.666;9.160;2023-07-24T23:15:48;18.40;99.90
12771;DHT22;6449;47.666;9.160;2023-07-24T23:20:41;18.30;99.90
12771;DHT22;6449;47.666;9.160;2023-07-24T23:25:36;18.40;99.90
12771;DHT22;6449;47.666;9.160;2023-07-24T23:30:29;18.40;99.90
12771;DHT22;6449;47.666;9.160;2023-07-24T23:35:31;18.40;99.90
12771;DHT22;6449;47.666;9.160;2023-07-24T23:40:25;18.40;99.90
12771;DHT22;6449;47.666;9.160;2023-07-24T23:45:20;18.40;99.90
12771;DHT22;6449;47.666;9.160;2023-07-24T23:50:13;18.20;99.90
12771;DHT22;6449;47.666;9.160;2023-07-24T23:55:07;18.10;99.90
